createdAt,value
2018-06-19T00:00:49.185Z,78.83
2018-06-19T00:03:54.927Z,80.13
2018-06-19T00:07:00.482Z,78.02
2018-06-19T00:10:05.431Z,80.29
2018-06-19T00:13:11.258Z,80.12
2018-06-19T00:16:16.736Z,80.63
2018-06-19T00:19:21.762Z,80.07
2018-06-19T00:22:27.572Z,80.32
2018-06-19T00:25:34.557Z,80.29
2018-06-19T00:28:42.625Z,80.49
2018-06-19T00:31:48.660Z,80.71
2018-06-19T00:34:55.750Z,80.55
2018-06-19T00:38:01.941Z,80.86
2018-06-19T00:41:08.701Z,81.23
2018-06-19T00:44:14.685Z,80.33
2018-06-19T00:47:20.697Z,79.93
2018-06-19T00:50:27.545Z,80.96
2018-06-19T00:53:33.519Z,81.17
2018-06-19T00:56:48.886Z,81.03
2018-06-19T00:59:54.612Z,80.49
2018-06-19T01:03:00.476Z,81.33
2018-06-19T01:06:06.308Z,81.12
2018-06-19T01:09:12.591Z,81.33
2018-06-19T01:12:18.017Z,81.43
2018-06-19T01:15:23.158Z,80.31
2018-06-19T01:18:28.725Z,79.92
2018-06-19T01:21:34.860Z,80.08
2018-06-19T01:24:40.128Z,80.29
2018-06-19T01:27:46.252Z,80.08
2018-06-19T01:30:51.808Z,80.38
2018-06-19T01:33:56.950Z,79.61
2018-06-19T01:37:02.148Z,79.34
2018-06-19T01:40:07.269Z,80.09
2018-06-19T01:43:12.589Z,79.92
2018-06-19T01:46:19.112Z,79.21
2018-06-19T01:49:24.225Z,79.69
2018-06-19T01:52:30.860Z,79.13
2018-06-19T01:55:37.627Z,79.69
2018-06-19T01:58:43.416Z,79.33
2018-06-19T02:01:50.337Z,79.53
2018-06-19T02:04:56.157Z,79.53
2018-06-19T02:08:01.238Z,79.54
2018-06-19T02:11:06.548Z,79.62
2018-06-19T02:14:11.653Z,78.56
2018-06-19T02:17:16.727Z,78.88
2018-06-19T02:20:22.708Z,78.38
2018-06-19T02:23:27.804Z,78.49
2018-06-19T02:26:32.864Z,78.12
2018-06-19T02:29:37.952Z,78.73
2018-06-19T02:32:44.068Z,79.39
2018-06-19T02:35:50.395Z,79.37
2018-06-19T02:38:56.553Z,79.25
2018-06-19T02:42:01.877Z,78.92
2018-06-19T02:45:08.932Z,78.51
2018-06-19T02:48:14.061Z,78.90
2018-06-19T02:51:19.864Z,78.44
2018-06-19T02:54:25.880Z,79.08
2018-06-19T02:57:30.995Z,79.73
2018-06-19T03:00:37.180Z,79.27
2018-06-19T03:03:42.987Z,79.23
2018-06-19T03:06:48.053Z,79.04
2018-06-19T03:09:53.882Z,79.12
2018-06-19T03:12:59.945Z,78.62
2018-06-19T03:16:04.995Z,78.64
2018-06-19T03:19:11.261Z,78.32
2018-06-19T03:22:17.361Z,78.76
2018-06-19T03:25:23.828Z,78.65
2018-06-19T03:28:28.920Z,78.20
2018-06-19T03:31:34.012Z,78.10
2018-06-19T03:34:39.093Z,78.10
2018-06-19T03:37:44.172Z,78.46
2018-06-19T03:40:49.253Z,78.31
2018-06-19T03:43:54.365Z,78.95
2018-06-19T03:46:59.425Z,78.83
2018-06-19T03:50:04.508Z,78.48
2018-06-19T03:53:09.449Z,78.44
2018-06-19T03:56:15.060Z,77.68
2018-06-19T03:59:20.148Z,78.08
2018-06-19T04:02:26.073Z,78.36
2018-06-19T04:05:31.540Z,78.15
2018-06-19T04:08:36.992Z,78.45
2018-06-19T04:11:42.820Z,78.44
2018-06-19T04:14:48.517Z,78.83
2018-06-19T04:17:54.527Z,78.55
2018-06-19T04:20:59.632Z,78.62
2018-06-19T04:24:13.803Z,78.46
2018-06-19T04:27:37.736Z,78.90
2018-06-19T04:30:54.805Z,78.94
2018-06-19T04:34:00.426Z,78.65
2018-06-19T04:37:05.641Z,78.69
2018-06-19T04:40:10.795Z,78.51
2018-06-19T04:43:15.937Z,78.21
2018-06-19T04:46:21.090Z,78.85
2018-06-19T04:49:26.943Z,78.61
2018-06-19T04:52:32.229Z,78.75
2018-06-19T04:55:38.367Z,78.72
2018-06-19T04:58:44.574Z,78.61
2018-06-19T05:01:49.701Z,79.17
2018-06-19T05:04:55.444Z,78.24
2018-06-19T05:08:01.850Z,79.14
2018-06-19T05:11:07.183Z,78.63
2018-06-19T05:14:12.307Z,78.50
2018-06-19T05:17:17.405Z,78.07
2018-06-19T05:20:27.817Z,79.05
2018-06-19T05:23:34.128Z,79.28
2018-06-19T05:26:39.210Z,78.22
2018-06-19T05:29:44.293Z,78.60
2018-06-19T05:32:49.444Z,79.27
2018-06-19T05:35:55.552Z,79.11
2018-06-19T05:39:00.624Z,78.26
2018-06-19T05:42:05.820Z,78.27
2018-06-19T05:45:10.892Z,78.13
2018-06-19T05:48:15.976Z,79.39
2018-06-19T05:51:21.964Z,79.12
2018-06-19T05:54:26.791Z,78.62
2018-06-19T05:57:31.877Z,78.25
2018-06-19T06:00:37.298Z,78.76
2018-06-19T06:03:42.383Z,78.61
2018-06-19T06:06:47.481Z,78.71
2018-06-19T06:09:52.530Z,77.97
2018-06-19T06:12:57.653Z,77.81
2018-06-19T06:16:03.109Z,78.81
2018-06-19T06:19:08.967Z,78.45
2018-06-19T06:22:15.102Z,78.77
2018-06-19T06:25:20.163Z,79.33
2018-06-19T06:28:25.852Z,78.68
2018-06-19T06:31:31.919Z,77.89
2018-06-19T06:34:36.964Z,78.51
2018-06-19T06:37:42.432Z,78.86
2018-06-19T06:40:49.496Z,78.75
2018-06-19T06:43:54.619Z,79.45
2018-06-19T06:46:59.403Z,78.43
2018-06-19T06:50:04.932Z,79.13
2018-06-19T06:53:10.025Z,79.46
2018-06-19T06:56:15.093Z,78.79
2018-06-19T06:59:20.195Z,78.10
2018-06-19T07:02:26.005Z,78.07
2018-06-19T07:05:31.475Z,78.15
2018-06-19T07:08:37.465Z,78.22
2018-06-19T07:11:42.527Z,78.85
2018-06-19T07:14:47.625Z,78.27
2018-06-19T07:17:52.696Z,78.35
2018-06-19T07:20:57.815Z,77.71
2018-06-19T07:24:02.921Z,78.74
2018-06-19T07:27:08.012Z,77.98
2018-06-19T07:30:13.892Z,78.05
2018-06-19T07:33:20.561Z,78.34
2018-06-19T07:36:26.524Z,77.66
2018-06-19T07:39:32.292Z,77.15
2018-06-19T07:42:38.387Z,77.38
2018-06-19T07:45:44.457Z,77.39
2018-06-19T07:48:49.708Z,77.71
2018-06-19T07:51:54.915Z,77.21
2018-06-19T07:55:00.878Z,76.76
2018-06-19T07:58:07.323Z,77.66
2018-06-19T08:01:13.219Z,76.37
2018-06-19T08:04:19.548Z,76.67
2018-06-19T08:07:25.498Z,76.22
2018-06-19T08:10:31.311Z,76.50
2018-06-19T08:13:37.296Z,76.67
2018-06-19T08:16:44.160Z,76.88
2018-06-19T08:19:49.670Z,76.27
2018-06-19T08:22:54.918Z,75.86
2018-06-19T08:26:00.943Z,76.99
2018-06-19T08:29:06.938Z,76.21
2018-06-19T08:32:12.771Z,76.53
2018-06-19T08:35:18.380Z,76.41
2018-06-19T08:38:25.447Z,75.57
2018-06-19T08:41:31.517Z,76.13
2018-06-19T08:44:38.257Z,75.45
2018-06-19T08:47:43.372Z,76.07
2018-06-19T08:50:48.882Z,75.77
2018-06-19T08:53:53.976Z,75.28
2018-06-19T08:56:59.594Z,75.46
2018-06-19T09:00:05.616Z,76.13
2018-06-19T09:03:11.897Z,75.61
2018-06-19T09:06:18.252Z,75.42
2018-06-19T09:09:23.992Z,75.80
2018-06-19T09:12:30.059Z,74.93
2018-06-19T09:15:35.140Z,75.73
2018-06-19T09:18:39.912Z,75.11
2018-06-19T09:21:46.776Z,75.33
2018-06-19T09:24:52.976Z,74.33
2018-06-19T09:27:58.999Z,75.26
2018-06-19T09:31:04.092Z,75.00
2018-06-19T09:34:09.435Z,75.66
2018-06-19T09:37:14.848Z,74.81
2018-06-19T09:40:19.926Z,75.03
2018-06-19T09:43:25.356Z,75.06
2018-06-19T09:46:32.224Z,75.66
2018-06-19T09:49:38.479Z,75.72
2018-06-19T09:52:45.403Z,75.63
2018-06-19T09:55:50.952Z,76.69
2018-06-19T09:58:56.997Z,75.88
2018-06-19T10:02:02.701Z,75.86
2018-06-19T10:05:08.925Z,76.80
2018-06-19T10:08:15.125Z,77.35
2018-06-19T10:11:20.197Z,77.58
2018-06-19T10:14:25.881Z,77.05
2018-06-19T10:17:32.141Z,77.40
2018-06-19T10:20:37.286Z,77.70
2018-06-19T10:23:43.280Z,76.96
2018-06-19T10:26:49.129Z,77.79
2018-06-19T10:29:54.223Z,77.98
2018-06-19T10:32:59.644Z,77.81
2018-06-19T10:36:06.883Z,77.48
2018-06-19T10:39:12.895Z,77.71
2018-06-19T10:42:18.917Z,77.75
2018-06-19T10:45:24.396Z,78.05
2018-06-19T10:48:29.509Z,76.87
2018-06-19T10:51:36.204Z,78.39
2018-06-19T10:54:42.013Z,77.59
2018-06-19T10:57:46.852Z,78.21
2018-06-19T11:00:51.697Z,77.12
2018-06-19T11:03:57.635Z,77.32
2018-06-19T11:07:02.901Z,77.71
2018-06-19T11:10:08.814Z,77.87
2018-06-19T11:13:13.644Z,77.22
2018-06-19T11:16:18.835Z,77.26
2018-06-19T11:19:25.000Z,77.11
2018-06-19T11:22:30.243Z,77.12
2018-06-19T11:25:35.988Z,77.14
2018-06-19T11:28:40.957Z,76.90
2018-06-19T11:31:46.496Z,76.96
2018-06-19T11:34:51.675Z,77.07
2018-06-19T11:37:56.987Z,76.98
2018-06-19T11:41:02.705Z,76.62
2018-06-19T11:44:09.423Z,77.04
2018-06-19T11:47:15.153Z,76.52
2018-06-19T11:50:19.980Z,76.26
2018-06-19T11:53:25.147Z,76.50
2018-06-19T11:56:31.224Z,76.39
2018-06-19T11:59:37.260Z,75.40
2018-06-19T12:02:42.995Z,75.27
2018-06-19T12:05:48.389Z,74.64
2018-06-19T12:08:54.468Z,75.08
2018-06-19T12:11:59.256Z,75.23
2018-06-19T12:15:04.674Z,75.27
2018-06-19T12:18:10.563Z,74.86
2018-06-19T12:21:15.929Z,75.17
2018-06-19T12:24:21.665Z,74.53
2018-06-19T12:27:26.497Z,75.05
2018-06-19T12:30:31.315Z,74.86
2018-06-19T12:33:37.075Z,75.44
2018-06-19T12:36:42.245Z,75.37
2018-06-19T12:39:47.048Z,75.36
2018-06-19T12:42:52.394Z,75.02
2018-06-19T12:45:57.415Z,75.08
2018-06-19T12:49:03.154Z,75.69
2018-06-19T12:52:20.447Z,75.09
2018-06-19T12:55:37.342Z,74.93
2018-06-19T12:58:42.688Z,75.50
2018-06-19T13:01:47.493Z,75.30
2018-06-19T13:05:03.551Z,74.91
2018-06-19T13:08:09.384Z,74.94
2018-06-19T13:11:14.234Z,73.99
2018-06-19T13:14:43.955Z,74.15
2018-06-19T13:18:00.856Z,74.25
2018-06-19T13:21:07.072Z,73.76
2018-06-19T13:24:12.668Z,73.67
2018-06-19T13:27:17.881Z,73.67
2018-06-19T13:30:35.025Z,73.75
2018-06-19T13:33:40.754Z,73.44
2018-06-19T13:36:46.466Z,73.84
2018-06-19T13:41:04.827Z,73.41
2018-06-19T13:44:20.813Z,73.57
2018-06-19T13:47:25.637Z,72.99
2018-06-19T13:50:31.336Z,73.10
2018-06-19T13:53:36.881Z,73.67
2018-06-19T13:56:50.588Z,73.52
2018-06-19T13:59:55.963Z,72.25
2018-06-19T14:03:00.766Z,73.06
2018-06-19T14:06:05.996Z,72.04
2018-06-19T14:09:22.596Z,72.20
2018-06-19T14:12:38.356Z,71.78
2018-06-19T14:15:47.196Z,72.42
2018-06-19T14:18:52.749Z,72.33
2018-06-19T14:21:58.492Z,71.28
2018-06-19T14:25:04.866Z,71.51
2018-06-19T14:28:11.108Z,71.67
2018-06-19T14:31:16.832Z,71.57
2018-06-19T14:34:22.167Z,71.69
2018-06-19T14:37:28.029Z,71.54
2018-06-19T14:40:33.814Z,71.13
2018-06-19T14:43:39.013Z,70.13
2018-06-19T14:46:44.848Z,70.54
2018-06-19T14:49:49.987Z,70.36
2018-06-19T14:52:54.800Z,69.59
2018-06-19T14:56:00.228Z,69.34
2018-06-19T14:59:05.183Z,69.70
2018-06-19T15:02:09.977Z,70.10
2018-06-19T15:05:15.289Z,70.04
2018-06-19T15:08:20.104Z,69.87
2018-06-19T15:11:25.402Z,70.29
2018-06-19T15:14:31.459Z,69.59
2018-06-19T15:17:37.247Z,70.02
2018-06-19T15:20:44.011Z,70.16
2018-06-19T15:23:48.869Z,69.96
2018-06-19T15:26:54.502Z,70.38
2018-06-19T15:30:00.252Z,69.66
2018-06-19T15:33:06.886Z,69.31
2018-06-19T15:36:13.616Z,69.81
2018-06-19T15:39:20.720Z,69.70
2018-06-19T15:42:26.327Z,69.40
2018-06-19T15:45:32.083Z,69.76
2018-06-19T15:48:38.332Z,69.95
2018-06-19T15:51:43.571Z,69.11
2018-06-19T15:54:48.744Z,69.54
2018-06-19T15:57:54.482Z,68.15
2018-06-19T16:00:59.543Z,68.18
2018-06-19T16:04:04.788Z,68.60
2018-06-19T16:07:09.607Z,68.50
2018-06-19T16:10:14.433Z,67.69
2018-06-19T16:13:20.157Z,67.74
2018-06-19T16:16:25.491Z,66.70
2018-06-19T16:19:31.545Z,66.76
2018-06-19T16:22:37.246Z,65.87
2018-06-19T16:25:42.972Z,64.26
2018-06-19T16:28:48.292Z,63.70
2018-06-19T16:31:54.984Z,61.50
2018-06-19T16:35:00.443Z,63.61
2018-06-19T16:38:07.199Z,64.02
2018-06-19T16:41:11.992Z,64.79
2018-06-19T16:44:17.633Z,63.57
2018-06-19T16:47:23.180Z,64.08
2018-06-19T16:50:30.051Z,64.02
2018-06-19T16:53:34.848Z,63.40
2018-06-19T16:56:40.614Z,64.67
2018-06-19T16:59:46.459Z,62.38
2018-06-19T17:02:51.570Z,63.71
2018-06-19T17:05:56.401Z,62.61
2018-06-19T17:09:01.214Z,62.71
2018-06-19T17:12:06.039Z,62.25
2018-06-19T17:15:13.036Z,63.30
2018-06-19T17:18:17.907Z,63.49
2018-06-19T17:21:23.176Z,62.92
2018-06-19T17:24:29.075Z,63.25
2018-06-19T17:27:34.787Z,60.93
2018-06-19T17:30:40.123Z,61.97
2018-06-19T17:33:44.922Z,62.44
2018-06-19T17:36:50.631Z,62.17
2018-06-19T17:39:56.110Z,62.42
2018-06-19T17:43:01.780Z,62.78
2018-06-19T17:46:07.107Z,62.28
2018-06-19T17:49:12.944Z,62.75
2018-06-19T17:52:18.796Z,61.67
2018-06-19T17:55:24.500Z,63.07
2018-06-19T17:58:30.348Z,63.30
2018-06-19T18:01:35.186Z,61.44
2018-06-19T18:04:40.529Z,61.98
2018-06-19T18:07:45.347Z,61.35
2018-06-19T18:10:51.337Z,63.13
2018-06-19T18:13:57.821Z,62.01
2018-06-19T18:17:03.041Z,61.79
2018-06-19T18:20:08.780Z,62.44
2018-06-19T18:23:14.125Z,62.71
2018-06-19T18:26:18.935Z,62.39
2018-06-19T18:29:24.551Z,62.30
2018-06-19T18:32:30.283Z,63.04
2018-06-19T18:35:35.076Z,63.21
2018-06-19T18:38:40.739Z,63.20
2018-06-19T18:41:47.024Z,63.20
2018-06-19T18:44:53.248Z,62.88
2018-06-19T18:47:58.457Z,62.85
2018-06-19T18:51:03.468Z,62.38
2018-06-19T18:54:08.304Z,63.40
2018-06-19T18:57:13.307Z,63.60
2018-06-19T19:00:18.789Z,62.78
2018-06-19T19:03:24.001Z,63.15
2018-06-19T19:06:28.784Z,63.67
2018-06-19T19:09:34.594Z,63.56
2018-06-19T19:12:40.475Z,63.08
2018-06-19T19:15:51.149Z,63.34
2018-06-19T19:19:01.836Z,63.62
2018-06-19T19:22:06.851Z,63.32
2018-06-19T19:25:13.357Z,63.53
2018-06-19T19:28:23.466Z,62.43
2018-06-19T19:31:29.959Z,62.67
2018-06-19T19:34:35.388Z,63.22
2018-06-19T19:37:45.568Z,63.18
2018-06-19T19:40:51.319Z,63.45
2018-06-19T19:43:56.820Z,63.15
2018-06-19T19:47:07.354Z,63.90
2018-06-19T19:50:13.230Z,63.92
2018-06-19T19:53:18.152Z,63.95
2018-06-19T19:56:29.156Z,63.48
2018-06-19T19:59:35.009Z,63.98
2018-06-19T20:02:40.580Z,63.27
2018-06-19T20:05:45.392Z,64.39
2018-06-19T20:08:51.479Z,63.46
2018-06-19T20:11:58.161Z,63.90
2018-06-19T20:15:04.264Z,64.43
2018-06-19T20:18:09.447Z,63.98
2018-06-19T20:21:15.516Z,64.94
2018-06-19T20:24:20.325Z,64.63
2018-06-19T20:27:26.788Z,64.37
2018-06-19T20:30:32.927Z,64.58
2018-06-19T20:33:40.726Z,65.39
2018-06-19T20:36:47.512Z,64.71
2018-06-19T20:39:52.729Z,65.40
2018-06-19T20:42:58.035Z,65.76
2018-06-19T20:46:03.521Z,65.37
2018-06-19T20:49:08.923Z,66.43
2018-06-19T20:52:14.628Z,65.39
2018-06-19T20:55:19.909Z,65.86
2018-06-19T20:58:24.727Z,66.70
2018-06-19T21:01:29.569Z,66.05
2018-06-19T21:04:35.748Z,66.64
2018-06-19T21:07:40.952Z,66.09
2018-06-19T21:10:45.955Z,66.07
2018-06-19T21:13:51.343Z,66.89
2018-06-19T21:16:57.517Z,67.07
2018-06-19T21:20:02.317Z,67.39
2018-06-19T21:23:07.565Z,66.57
2018-06-19T21:26:13.594Z,67.74
2018-06-19T21:29:18.476Z,67.15
2018-06-19T21:32:24.061Z,67.27
2018-06-19T21:35:29.459Z,67.46
2018-06-19T21:38:35.992Z,67.44
2018-06-19T21:41:41.123Z,68.34
2018-06-19T21:44:45.948Z,68.57
2018-06-19T21:47:51.704Z,68.03
2018-06-19T21:50:57.259Z,68.04
2018-06-19T21:54:04.036Z,68.37
2018-06-19T21:57:09.494Z,68.36
2018-06-19T22:00:15.473Z,69.00
2018-06-19T22:03:20.952Z,68.35
2018-06-19T22:06:27.667Z,68.66
2018-06-19T22:09:32.901Z,69.27
2018-06-19T22:12:38.650Z,69.33
2018-06-19T22:15:44.190Z,69.58
2018-06-19T22:18:49.656Z,69.14
2018-06-19T22:21:55.193Z,69.53
2018-06-19T22:25:00.903Z,69.04
2018-06-19T22:28:06.459Z,69.13
2018-06-19T22:31:11.268Z,69.49
2018-06-19T22:34:17.082Z,69.27
2018-06-19T22:37:21.880Z,70.08
2018-06-19T22:40:28.579Z,70.13
2018-06-19T22:43:33.357Z,69.51
2018-06-19T22:46:38.696Z,69.57
2018-06-19T22:49:44.731Z,69.75
2018-06-19T22:52:50.329Z,69.33
2018-06-19T22:55:57.260Z,69.77
2018-06-19T22:59:02.060Z,70.24
2018-06-19T23:02:07.784Z,70.61
2018-06-19T23:05:12.872Z,70.62
2018-06-19T23:08:18.423Z,71.14
2018-06-19T23:11:24.929Z,71.32
2018-06-19T23:14:30.915Z,71.24
2018-06-19T23:17:36.988Z,71.40
2018-06-19T23:20:42.100Z,71.06
2018-06-19T23:23:48.104Z,71.17
2018-06-19T23:26:55.092Z,71.52
2018-06-19T23:30:01.293Z,71.15
2018-06-19T23:33:06.524Z,71.61
2018-06-19T23:36:12.001Z,71.67
2018-06-19T23:39:17.982Z,71.27
2018-06-19T23:42:23.748Z,71.25
2018-06-19T23:45:29.773Z,71.46
2018-06-19T23:48:34.863Z,72.22
2018-06-19T23:51:40.760Z,72.38
2018-06-19T23:54:46.776Z,71.30
2018-06-19T23:57:53.096Z,72.03
